Lexington, MA (02420)

11:40 AM EDT on April 28, 2015 (GMT -0400)
The Great Meadow | | Change Station
CLOSE
Current Station
Personal Weather Station
Location: Lexington, MA
Elevation: 202 ft
Nearby Weather Stations

Elev 202 ft 42.43 °N, 71.21 °W | Updated 8 seconds ago

Partly Cloudy
Partly Cloudy
52.7 °F
Feels Like 52.7 °F
N
3.0
Wind Variable Wind from North
Gusts 9.0 mph

Today
High -- | Low -- °F
--% Chance of Precip.
Yesterday
High -- | Low -- °F
Precip. -- in
5:44 AM 7:41 PM
Waxing Gibbous, 74% visible
Pressure 29.79 in
Visibility 10.0 miles
Clouds Few 4800 ft
Dew Point 36 °F
Humidity 52%
Rainfall 0.09 in
Snow Depth Not available.
UV 8 out of 12
Pollen 8.00 out of 12
Air Quality Not available.
Flu Activity Widespread
METAR KBED 281456Z AUTO 36008G18KT 10SM FEW048 11/00 A2975 RMK AO2 SLP088 60000 T01110000 50002 TSNO

More Conditions Fewer Conditions

Pressure 29.79 in
Visibility 10.0 miles
Clouds Few 4800 ft
Dew Point 36 °F
Humidity 52%
Rainfall 0.09 in
Snow Depth Not available.
UV 8 out of 12
Pollen 8.00 out of 12
Air Quality Not available.
Flu Activity Widespread
METAR KBED 281456Z AUTO 36008G18KT 10SM FEW048 11/00 A2975 RMK AO2 SLP088 60000 T01110000 50002 TSNO

More Conditions Fewer Conditions

10-Day Weather Forecast

Almanac

Astronomy

Apr. 28, 2015 Rise Set
Actual Time
Civil Twilight
Nautical Twilight
Astronomical Twilight
Moon
Length of Visible Light
Length of Day
Tomorrow will be .
, % of the Moon is Illuminated

Today's Extremes

State Highs State Lows

Community

WunderPhotos

Upload Photos

1,817,680 photos uploaded!

WunderBlogs® & News

Nearby

Air Quality

  Air Quality AQ Index Pollutant
Not available.

Snow Depth

Station Depth Elevation

Earthquake Activity

City Distance Mag. Time & Date
Minimum magnitude displayed is 2.5.

Coastal Water Temperatures

Place Temperature

Stations

Nearby Weather Stations

Station Location Temp. Windchill Dew Point Humidity Wind Precip. Elev Updated Type